Armada Township, Michigan
Current Conditions -  °F | °C
As of 2:58 AM on Friday 31 Oct 2014 (Local Time) from KMTC Reporting Station
Broken Clouds Broken Clouds  
Wind Chill: 42°   Ceiling: 5500
Heat Index: 46°   Visibility: 10mi
Dew Point: 38°   Wind: 7mph
Humidity: 73%   Direction: 220°SW
Pressure: 29.94"   Gusts: NA
Location:  42.8463°N, 82.9201°W
Report Text: KMTC 310658Z AUTO 22006KT 10SM BKN055 08/03 A2994 RMK AO2 RAB0622E0631 SLP145 P0000 T00770032
Loading
Personal Weather Stations






























Interactive Weather Map
Tropical Storm Tracking
New forecast layout! Learn more

10-Day Weather Forecast

Advertisements
Track Severe Weather on mobile